createdAt,value
2022-08-20T00:01:08.107Z,23.67
2022-08-20T00:03:40.236Z,25.95
2022-08-20T00:06:10.690Z,26.23
2022-08-20T00:08:39.751Z,26.10
2022-08-20T00:11:11.633Z,32.67
2022-08-20T00:13:45.356Z,28.98
2022-08-20T00:16:15.443Z,30.33
2022-08-20T00:18:43.507Z,30.50
2022-08-20T00:21:18.058Z,32.53
2022-08-20T00:23:48.885Z,31.10
2022-08-20T00:26:18.240Z,34.85
2022-08-20T00:28:51.229Z,35.58
2022-08-20T00:31:22.626Z,34.92
2022-08-20T00:34:55.589Z,38.72
2022-08-20T00:41:06.325Z,38.53
2022-08-20T00:43:38.114Z,33.30
2022-08-20T00:46:14.131Z,25.53
2022-08-20T00:48:43.520Z,23.80
2022-08-20T00:51:15.115Z,24.15
2022-08-20T00:53:43.348Z,19.63
2022-08-20T00:56:12.444Z,12.70
2022-08-20T00:58:42.121Z,14.20
2022-08-20T01:01:11.213Z,11.85
2022-08-20T01:03:39.949Z,12.48
2022-08-20T01:06:09.463Z,13.80
2022-08-20T01:08:39.336Z,12.95
2022-08-20T01:11:16.866Z,12.32
2022-08-20T01:13:48.426Z,9.15
2022-08-20T01:16:24.286Z,11.27
2022-08-20T01:18:52.896Z,10.82
2022-08-20T01:21:24.980Z,10.75
2022-08-20T01:23:57.569Z,10.90
2022-08-20T01:27:29.549Z,11.27
2022-08-20T01:30:00.986Z,12.52
2022-08-20T01:32:34.887Z,10.32
2022-08-20T01:35:02.882Z,11.20
2022-08-20T01:37:31.387Z,15.38
2022-08-20T01:40:00.460Z,13.07
2022-08-20T01:42:31.299Z,14.43
2022-08-20T01:45:00.513Z,15.68
2022-08-20T01:47:38.314Z,15.05
2022-08-20T01:50:13.581Z,14.38
2022-08-20T01:52:52.477Z,14.85
2022-08-20T01:55:20.818Z,15.93
2022-08-20T01:57:50.211Z,11.00
2022-08-20T02:00:22.732Z,13.55
2022-08-20T02:02:52.062Z,14.63
2022-08-20T02:05:21.349Z,14.85
2022-08-20T02:07:49.975Z,15.88
2022-08-20T02:10:19.931Z,12.57
2022-08-20T02:12:48.748Z,13.40
2022-08-20T02:16:18.184Z,12.97
2022-08-20T02:18:47.543Z,14.90
2022-08-20T02:21:15.383Z,12.07
2022-08-20T02:23:43.336Z,10.73
2022-08-20T02:27:16.525Z,12.33
2022-08-20T02:29:44.200Z,14.45
2022-08-20T02:32:25.099Z,15.00
2022-08-20T02:35:03.334Z,10.70
2022-08-20T02:37:32.615Z,16.08
2022-08-20T02:40:01.186Z,15.45
2022-08-20T02:42:29.636Z,13.30
2022-08-20T02:44:58.636Z,11.52
2022-08-20T02:47:27.668Z,11.18
2022-08-20T02:49:56.540Z,14.97
2022-08-20T02:52:25.809Z,12.70
2022-08-20T02:55:58.879Z,13.23
2022-08-20T02:58:28.401Z,15.87
2022-08-20T03:00:56.901Z,15.85
2022-08-20T03:03:26.216Z,13.77
2022-08-20T03:05:56.389Z,16.95
2022-08-20T03:08:26.684Z,11.13
2022-08-20T03:10:55.335Z,14.00
2022-08-20T03:13:24.408Z,16.05
2022-08-20T03:15:58.619Z,15.23
2022-08-20T03:18:28.935Z,12.95
2022-08-20T03:20:56.709Z,14.25
2022-08-20T03:23:27.510Z,15.35
2022-08-20T03:26:59.603Z,11.95
2022-08-20T03:29:28.211Z,12.23
2022-08-20T03:31:56.076Z,12.23
2022-08-20T03:34:24.523Z,13.50
2022-08-20T03:36:52.544Z,18.02
2022-08-20T03:39:22.091Z,14.35
2022-08-20T03:41:50.027Z,16.13
2022-08-20T03:44:18.889Z,16.05
2022-08-20T03:46:47.606Z,14.10
2022-08-20T03:49:16.803Z,13.38
2022-08-20T03:51:57.440Z,18.77
2022-08-20T03:54:32.005Z,14.30
2022-08-20T03:57:00.684Z,14.02
2022-08-20T03:59:28.387Z,12.02
2022-08-20T04:01:57.309Z,11.48
2022-08-20T04:04:25.477Z,12.40
2022-08-20T04:06:54.299Z,13.88
2022-08-20T04:09:22.895Z,14.98
2022-08-20T04:12:00.264Z,9.93
2022-08-20T04:14:27.923Z,14.32
2022-08-20T04:17:58.760Z,17.55
2022-08-20T04:20:28.668Z,14.95
2022-08-20T04:22:58.966Z,12.50
2022-08-20T04:25:29.759Z,15.25
2022-08-20T04:28:03.717Z,17.55
2022-08-20T04:30:32.852Z,18.67
2022-08-20T04:33:00.631Z,14.85
2022-08-20T04:35:30.482Z,15.10
2022-08-20T04:38:02.236Z,15.75
2022-08-20T04:40:47.483Z,19.87
2022-08-20T04:43:19.995Z,19.83
2022-08-20T04:45:48.266Z,21.37
2022-08-20T04:48:16.953Z,16.52
2022-08-20T04:51:48.963Z,16.80
2022-08-20T04:54:16.891Z,15.27
2022-08-20T04:56:44.766Z,16.90
2022-08-20T04:59:13.940Z,17.02
2022-08-20T05:01:42.204Z,16.63
2022-08-20T05:04:10.230Z,19.33
2022-08-20T05:06:41.161Z,17.03
2022-08-20T05:09:08.876Z,20.38
2022-08-20T05:11:37.162Z,19.38
2022-08-20T05:14:08.909Z,21.55
2022-08-20T05:16:41.193Z,20.27
2022-08-20T05:19:12.112Z,17.08
2022-08-20T05:21:41.055Z,21.63
2022-08-20T05:24:10.226Z,19.65
2022-08-20T05:26:38.842Z,22.50
2022-08-20T05:29:07.675Z,19.73
2022-08-20T05:31:36.223Z,18.55
2022-08-20T05:34:10.780Z,20.00
2022-08-20T05:36:40.800Z,16.33
2022-08-20T05:39:08.928Z,17.95
2022-08-20T05:41:37.773Z,17.50
2022-08-20T05:44:05.675Z,20.70
2022-08-20T05:46:33.616Z,20.08
2022-08-20T05:49:02.054Z,18.20
2022-08-20T05:51:36.705Z,21.17
2022-08-20T05:54:06.113Z,20.42
2022-08-20T05:56:35.022Z,18.45
2022-08-20T05:59:05.081Z,19.27
2022-08-20T06:01:34.370Z,25.13
2022-08-20T06:04:20.018Z,21.77
2022-08-20T06:06:51.823Z,22.98
2022-08-20T06:09:31.172Z,18.13
2022-08-20T06:12:02.801Z,20.55
2022-08-20T06:14:31.187Z,24.17
2022-08-20T06:17:10.634Z,23.20
2022-08-20T06:19:44.516Z,17.77
2022-08-20T06:22:21.732Z,21.73
2022-08-20T06:24:55.495Z,20.45
2022-08-20T06:27:24.287Z,27.13
2022-08-20T06:29:52.326Z,22.27
2022-08-20T06:32:32.514Z,20.63
2022-08-20T06:35:03.696Z,22.90
2022-08-20T06:37:37.194Z,25.15
2022-08-20T06:40:08.994Z,22.20
2022-08-20T06:42:41.655Z,26.67
2022-08-20T06:45:12.572Z,26.58
2022-08-20T06:47:42.157Z,25.90
2022-08-20T06:50:13.395Z,27.13
2022-08-20T06:52:52.151Z,27.13
2022-08-20T06:55:22.055Z,24.85
2022-08-20T06:57:58.006Z,26.58
2022-08-20T07:00:26.383Z,24.30
2022-08-20T07:02:54.151Z,26.13
2022-08-20T07:05:22.125Z,24.67
2022-08-20T07:07:51.442Z,27.98
2022-08-20T07:10:21.170Z,27.15
2022-08-20T07:12:51.449Z,27.77
2022-08-20T07:15:21.526Z,25.85
2022-08-20T07:17:58.730Z,26.67
2022-08-20T07:20:29.942Z,23.92
2022-08-20T07:22:59.294Z,22.88
2022-08-20T07:25:27.099Z,24.03
2022-08-20T07:28:01.613Z,22.23
2022-08-20T07:30:55.997Z,20.50
2022-08-20T07:33:25.088Z,21.85
2022-08-20T07:35:52.946Z,17.42
2022-08-20T07:38:25.093Z,20.25
2022-08-20T07:40:57.115Z,19.23
2022-08-20T07:43:25.422Z,24.60
2022-08-20T07:45:55.794Z,17.25
2022-08-20T07:48:31.458Z,20.63
2022-08-20T07:51:03.820Z,17.90
2022-08-20T07:53:37.398Z,15.73
2022-08-20T07:57:09.432Z,19.33
2022-08-20T07:59:39.898Z,20.63
2022-08-20T08:02:08.566Z,22.52
2022-08-20T08:04:38.497Z,21.50
2022-08-20T08:08:10.792Z,22.88
2022-08-20T08:10:41.653Z,24.73
2022-08-20T08:13:12.671Z,22.48
2022-08-20T08:15:45.838Z,20.27
2022-08-20T08:18:17.728Z,23.17
2022-08-20T08:20:46.671Z,21.98
2022-08-20T08:23:31.850Z,18.55
2022-08-20T08:26:01.434Z,15.80
2022-08-20T08:28:29.615Z,16.77
2022-08-20T08:30:58.081Z,18.75
2022-08-20T08:33:31.030Z,13.35
2022-08-20T08:36:00.425Z,14.90
2022-08-20T08:38:28.578Z,12.83
2022-08-20T08:41:00.282Z,12.85
2022-08-20T08:43:32.039Z,14.73
2022-08-20T08:46:02.615Z,15.40
2022-08-20T08:48:36.816Z,15.00
2022-08-20T08:51:07.691Z,12.90
2022-08-20T08:53:39.125Z,13.90
2022-08-20T08:56:07.761Z,8.20
2022-08-20T08:58:37.253Z,8.90
2022-08-20T09:01:09.873Z,9.50
2022-08-20T09:03:44.430Z,8.85
2022-08-20T09:06:16.151Z,8.52
2022-08-20T09:08:48.497Z,11.23
2022-08-20T09:11:18.142Z,8.93
2022-08-20T09:13:48.066Z,7.68
2022-08-20T09:16:16.582Z,7.80
2022-08-20T09:18:45.285Z,6.13
2022-08-20T09:21:14.591Z,7.45
2022-08-20T09:23:43.461Z,9.07
2022-08-20T09:26:11.218Z,8.38
2022-08-20T09:28:39.169Z,9.10
2022-08-20T09:31:08.405Z,6.25
2022-08-20T09:33:38.399Z,7.55
2022-08-20T09:36:31.415Z,9.75
2022-08-20T09:38:55.091Z,9.32
2022-08-20T09:41:22.820Z,6.35
2022-08-20T09:43:52.317Z,9.10
2022-08-20T09:46:27.373Z,7.60
2022-08-20T09:48:56.387Z,7.55
2022-08-20T09:55:07.247Z,7.72
2022-08-20T09:57:36.025Z,6.25
2022-08-20T10:00:08.732Z,5.17
2022-08-20T10:02:37.882Z,7.70
2022-08-20T10:05:06.445Z,4.53
2022-08-20T10:07:38.936Z,4.22
2022-08-20T10:10:08.170Z,5.72
2022-08-20T10:12:36.121Z,4.63
2022-08-20T10:15:03.885Z,5.03
2022-08-20T10:17:31.832Z,5.53
2022-08-20T10:20:03.372Z,4.82
2022-08-20T10:22:33.060Z,4.70
2022-08-20T10:25:01.355Z,8.63
2022-08-20T10:27:29.219Z,6.85
2022-08-20T10:29:58.401Z,6.43
2022-08-20T10:32:27.051Z,5.43
2022-08-20T10:34:54.915Z,7.85
2022-08-20T10:37:25.701Z,9.55
2022-08-20T10:39:54.075Z,6.00
2022-08-20T10:42:22.878Z,5.35
2022-08-20T10:44:50.864Z,6.10
2022-08-20T10:47:24.805Z,7.13
2022-08-20T10:49:55.806Z,4.20
2022-08-20T10:52:29.351Z,6.32
2022-08-20T10:54:58.420Z,6.53
2022-08-20T10:57:29.587Z,5.88
2022-08-20T10:59:59.522Z,6.10
2022-08-20T11:02:29.088Z,9.13
2022-08-20T11:04:57.722Z,7.10
2022-08-20T11:07:54.987Z,6.10
2022-08-20T11:11:21.460Z,5.60
2022-08-20T11:13:49.325Z,6.15
2022-08-20T11:19:59.497Z,8.13
2022-08-20T11:22:29.207Z,6.70
2022-08-20T11:24:58.452Z,4.20
2022-08-20T11:27:28.455Z,4.90
2022-08-20T11:29:56.766Z,8.90
2022-08-20T11:32:25.904Z,9.93
2022-08-20T11:34:54.477Z,8.13
2022-08-20T11:37:25.267Z,10.30
2022-08-20T11:39:56.842Z,6.70
2022-08-20T11:42:24.862Z,7.95
2022-08-20T11:44:53.552Z,6.05
2022-08-20T11:47:24.265Z,6.63
2022-08-20T11:50:56.720Z,7.32
2022-08-20T11:53:26.366Z,10.07
2022-08-20T11:55:55.482Z,8.35
2022-08-20T11:58:23.292Z,8.25
2022-08-20T12:00:51.998Z,6.25
2022-08-20T12:03:20.631Z,10.27
2022-08-20T12:05:48.924Z,9.35
2022-08-20T12:08:27.133Z,6.03
2022-08-20T12:11:01.551Z,8.63
2022-08-20T12:13:47.397Z,5.85
2022-08-20T12:16:16.886Z,7.35
2022-08-20T12:18:45.760Z,6.83
2022-08-20T12:21:13.527Z,6.90
2022-08-20T12:23:41.535Z,4.70
2022-08-20T12:26:13.770Z,7.97
2022-08-20T12:28:41.824Z,4.65
2022-08-20T12:31:09.679Z,8.63
2022-08-20T12:33:37.811Z,5.43
2022-08-20T12:36:06.262Z,7.20
2022-08-20T12:38:34.114Z,8.25
2022-08-20T12:41:02.745Z,7.55
2022-08-20T12:43:32.499Z,9.05
2022-08-20T12:46:00.577Z,9.63
2022-08-20T12:48:28.692Z,13.05
2022-08-20T12:50:56.742Z,9.27
2022-08-20T12:53:25.440Z,7.30
2022-08-20T12:55:53.186Z,7.80
2022-08-20T12:58:21.268Z,9.63
2022-08-20T13:00:52.717Z,12.10
2022-08-20T13:03:21.758Z,4.35
2022-08-20T13:05:51.006Z,5.90
2022-08-20T13:08:19.832Z,6.75
2022-08-20T13:10:47.736Z,6.55
2022-08-20T13:13:17.693Z,8.40
2022-08-20T13:15:49.666Z,6.00
2022-08-20T13:18:20.998Z,4.90
2022-08-20T13:20:49.137Z,5.18
2022-08-20T13:23:17.240Z,6.07
2022-08-20T13:25:45.914Z,6.22
2022-08-20T13:28:14.246Z,6.93
2022-08-20T13:30:42.039Z,5.32
2022-08-20T13:33:10.853Z,7.78
2022-08-20T13:35:40.542Z,5.75
2022-08-20T13:38:08.670Z,6.68
2022-08-20T13:40:36.649Z,9.73
2022-08-20T13:43:07.582Z,6.47
2022-08-20T13:45:40.949Z,6.47
2022-08-20T13:48:10.103Z,6.40
2022-08-20T13:50:49.061Z,5.30
2022-08-20T13:53:18.277Z,6.93
2022-08-20T13:55:46.932Z,7.83
2022-08-20T13:58:14.740Z,7.57
2022-08-20T14:00:42.755Z,6.67
2022-08-20T14:03:11.723Z,6.97
2022-08-20T14:05:40.464Z,11.27
2022-08-20T14:08:13.112Z,7.38
2022-08-20T14:10:42.903Z,8.50
2022-08-20T14:13:15.176Z,8.27
2022-08-20T14:15:45.033Z,8.98
2022-08-20T14:18:14.387Z,7.37
2022-08-20T14:20:45.559Z,7.28
2022-08-20T14:23:15.478Z,8.23
2022-08-20T14:25:46.706Z,4.65
2022-08-20T14:28:18.249Z,7.07
2022-08-20T14:30:52.624Z,4.93
2022-08-20T14:33:21.432Z,7.90
2022-08-20T14:35:49.877Z,6.60
2022-08-20T14:38:19.683Z,5.80
2022-08-20T14:40:50.226Z,7.10
2022-08-20T14:43:20.443Z,9.90
2022-08-20T14:45:48.380Z,5.80
2022-08-20T14:48:17.888Z,6.82
2022-08-20T14:50:45.745Z,6.82
2022-08-20T14:53:14.416Z,7.57
2022-08-20T14:55:43.483Z,7.30
2022-08-20T14:58:12.466Z,5.60
2022-08-20T15:00:41.226Z,4.32
2022-08-20T15:07:51.952Z,6.95
2022-08-20T15:10:24.950Z,8.57
2022-08-20T15:12:56.649Z,9.83
2022-08-20T15:15:26.981Z,8.23
2022-08-20T15:17:58.024Z,5.30
2022-08-20T15:20:28.216Z,10.00
2022-08-20T15:30:23.268Z,5.95
2022-08-20T15:32:54.966Z,8.77
2022-08-20T15:35:26.120Z,8.70
2022-08-20T15:37:56.910Z,7.85
2022-08-20T15:40:28.723Z,6.20
2022-08-20T15:42:58.621Z,7.63
2022-08-20T15:45:30.869Z,7.07
2022-08-20T15:48:03.049Z,5.00
2022-08-20T15:50:53.184Z,9.68
2022-08-20T15:53:25.069Z,8.55
2022-08-20T15:55:58.839Z,8.73
2022-08-20T15:58:33.328Z,7.72
2022-08-20T16:01:24.733Z,5.07
2022-08-20T16:04:07.248Z,11.35
2022-08-20T16:06:36.625Z,8.38
2022-08-20T16:09:19.720Z,6.63
2022-08-20T16:11:52.243Z,10.17
2022-08-20T16:14:24.299Z,7.00
2022-08-20T16:17:04.430Z,4.82
2022-08-20T16:19:37.658Z,9.47
2022-08-20T16:22:06.424Z,9.15
2022-08-20T16:24:35.193Z,6.07
2022-08-20T16:27:13.665Z,8.05
2022-08-20T16:29:47.741Z,6.47
2022-08-20T16:32:21.602Z,9.07
2022-08-20T16:34:53.147Z,10.98
2022-08-20T16:37:26.738Z,6.20
2022-08-20T16:40:01.561Z,8.40
2022-08-20T16:42:33.284Z,9.32
2022-08-20T16:45:02.185Z,10.27
2022-08-20T16:47:35.829Z,10.43
2022-08-20T16:50:07.783Z,7.15
2022-08-20T16:52:35.742Z,11.45
2022-08-20T16:55:03.989Z,8.60
2022-08-20T16:57:31.910Z,8.53
2022-08-20T17:00:08.445Z,7.82
2022-08-20T17:02:50.880Z,10.57
2022-08-20T17:05:19.085Z,6.35
2022-08-20T17:07:51.560Z,7.35
2022-08-20T17:10:24.931Z,10.20
2022-08-20T17:12:55.230Z,7.00
2022-08-20T17:15:26.737Z,7.95
2022-08-20T17:18:18.180Z,8.40
2022-08-20T17:20:47.816Z,7.00
2022-08-20T17:23:18.509Z,7.10
2022-08-20T17:25:55.289Z,4.47
2022-08-20T17:28:24.419Z,8.87
2022-08-20T17:30:53.601Z,6.85
2022-08-20T17:33:39.960Z,9.05
2022-08-20T17:36:11.499Z,5.53
2022-08-20T17:38:43.064Z,6.90
2022-08-20T17:41:17.358Z,5.50
2022-08-20T17:43:46.294Z,7.97
2022-08-20T17:46:17.555Z,8.63
2022-08-20T17:48:50.297Z,6.50
2022-08-20T17:51:21.561Z,6.80
2022-08-20T17:53:53.008Z,10.55
2022-08-20T17:56:23.635Z,5.95
2022-08-20T17:58:56.583Z,5.03
2022-08-20T18:01:27.287Z,7.80
2022-08-20T18:04:00.784Z,6.03
2022-08-20T18:06:35.743Z,6.13
2022-08-20T18:09:08.568Z,8.07
2022-08-20T18:11:41.776Z,4.60
2022-08-20T18:14:27.477Z,8.27
2022-08-20T18:17:08.203Z,9.50
2022-08-20T18:20:15.236Z,9.52
2022-08-20T18:22:50.801Z,7.63
2022-08-20T18:25:30.977Z,6.80
2022-08-20T18:28:05.140Z,7.60
2022-08-20T18:30:34.315Z,5.75
2022-08-20T18:33:05.441Z,8.23
2022-08-20T18:35:37.973Z,8.70
2022-08-20T18:38:14.130Z,11.70
2022-08-20T18:40:41.909Z,12.00
2022-08-20T18:43:13.982Z,5.72
2022-08-20T18:45:43.029Z,7.20
2022-08-20T18:49:12.213Z,4.90
2022-08-20T18:51:49.401Z,7.40
2022-08-20T18:54:25.030Z,4.97
2022-08-20T19:04:20.615Z,7.50
2022-08-20T19:06:57.606Z,8.63
2022-08-20T19:09:47.869Z,7.93
2022-08-20T19:12:29.637Z,7.57
2022-08-20T19:15:03.530Z,11.67
2022-08-20T19:17:50.739Z,10.57
2022-08-20T19:20:21.395Z,7.72
2022-08-20T19:22:55.698Z,7.13
2022-08-20T19:25:27.629Z,6.18
2022-08-20T19:27:57.287Z,6.60
2022-08-20T19:30:33.108Z,7.22
2022-08-20T19:33:01.877Z,5.40
2022-08-20T19:35:30.639Z,11.00
2022-08-20T19:38:02.571Z,7.30
2022-08-20T19:40:38.149Z,7.85
2022-08-20T19:43:12.149Z,11.25
2022-08-20T19:45:42.779Z,6.45
2022-08-20T19:48:41.492Z,7.80
2022-08-20T19:51:14.018Z,6.93
2022-08-20T19:53:48.660Z,9.43
2022-08-20T19:56:19.054Z,4.88
2022-08-20T19:58:47.049Z,6.43
2022-08-20T20:01:19.213Z,7.18
2022-08-20T20:03:58.558Z,7.47
2022-08-20T20:06:27.366Z,6.95
2022-08-20T20:09:00.734Z,6.23
2022-08-20T20:11:34.482Z,9.43
2022-08-20T20:14:04.760Z,9.60
2022-08-20T20:16:33.216Z,9.75
2022-08-20T20:19:24.894Z,7.68
2022-08-20T20:21:51.720Z,35.78
2022-08-20T20:24:26.431Z,26.45
2022-08-20T20:26:55.593Z,21.75
2022-08-20T20:29:26.020Z,20.25
2022-08-20T20:31:55.627Z,19.98
2022-08-20T20:34:27.261Z,29.25
2022-08-20T20:37:16.293Z,31.45
2022-08-20T20:40:19.364Z,21.77
2022-08-20T20:42:58.824Z,18.70
2022-08-20T20:45:33.318Z,18.67
2022-08-20T20:48:06.567Z,11.50
2022-08-20T20:50:36.354Z,10.40
2022-08-20T20:53:04.171Z,13.75
2022-08-20T20:55:39.047Z,9.55
2022-08-20T20:58:06.891Z,7.20
2022-08-20T21:00:35.397Z,9.65
2022-08-20T21:03:04.010Z,27.48
2022-08-20T21:05:33.311Z,16.42
2022-08-20T21:08:03.948Z,9.32
2022-08-20T21:10:37.000Z,7.30
2022-08-20T21:13:06.680Z,12.52
2022-08-20T21:15:35.518Z,9.77
2022-08-20T21:18:06.446Z,8.85
2022-08-20T21:20:35.704Z,6.95
2022-08-20T21:23:05.137Z,9.65
2022-08-20T21:25:35.548Z,10.10
2022-08-20T21:28:03.790Z,8.07
2022-08-20T21:30:33.812Z,8.63
2022-08-20T21:33:01.718Z,13.63
2022-08-20T21:35:30.528Z,9.80
2022-08-20T21:37:58.813Z,11.10
2022-08-20T21:40:28.377Z,8.53
2022-08-20T21:42:59.958Z,12.27
2022-08-20T21:45:28.687Z,10.75
2022-08-20T21:47:57.498Z,10.27
2022-08-20T21:50:26.404Z,13.10
2022-08-20T21:52:59.106Z,11.67
2022-08-20T21:56:32.373Z,10.07
2022-08-20T21:59:05.119Z,9.50
2022-08-20T22:01:35.405Z,12.60
2022-08-20T22:04:03.443Z,11.40
2022-08-20T22:06:33.710Z,11.93
2022-08-20T22:09:01.535Z,12.55
2022-08-20T22:11:31.342Z,13.93
2022-08-20T22:13:59.771Z,11.52
2022-08-20T22:16:29.927Z,9.63
2022-08-20T22:18:57.895Z,6.37
2022-08-20T22:21:28.326Z,10.05
2022-08-20T22:24:01.349Z,11.98
2022-08-20T22:26:30.214Z,10.07
2022-08-20T22:28:59.125Z,12.07
2022-08-20T22:31:31.680Z,13.38
2022-08-20T22:34:01.979Z,13.98
2022-08-20T22:36:29.976Z,11.18
2022-08-20T22:38:58.526Z,22.67
2022-08-20T22:41:26.501Z,16.55
2022-08-20T22:43:56.307Z,19.65
2022-08-20T22:46:27.912Z,16.52
2022-08-20T22:48:58.660Z,11.90
2022-08-20T22:51:32.406Z,12.98
2022-08-20T22:54:04.046Z,43.25
2022-08-20T22:56:33.146Z,15.57
2022-08-20T22:59:02.626Z,14.73
2022-08-20T23:01:32.306Z,10.98
2022-08-20T23:04:10.021Z,43.13
2022-08-20T23:06:38.781Z,8.73
2022-08-20T23:09:08.100Z,13.07
2022-08-20T23:11:41.618Z,10.93
2022-08-20T23:14:10.404Z,9.10
2022-08-20T23:16:40.823Z,13.20
2022-08-20T23:19:11.170Z,10.80
2022-08-20T23:21:38.825Z,11.55
2022-08-20T23:24:14.312Z,16.10
2022-08-20T23:26:52.385Z,11.23
2022-08-20T23:29:25.133Z,12.82
2022-08-20T23:31:56.479Z,15.50
2022-08-20T23:34:29.372Z,10.67
2022-08-20T23:36:58.430Z,13.85
2022-08-20T23:39:27.201Z,16.08
2022-08-20T23:41:56.715Z,17.70
2022-08-20T23:44:26.569Z,16.20
2022-08-20T23:47:59.298Z,17.63
2022-08-20T23:50:30.514Z,20.87
2022-08-20T23:52:59.744Z,13.27
2022-08-20T23:55:27.703Z,14.65
2022-08-20T23:57:55.492Z,13.32
